createdAt,value
2019-04-19T00:01:02.707Z,12.00
2019-04-19T00:03:32.167Z,11.80
2019-04-19T00:06:13.764Z,11.93
2019-04-19T00:08:49.481Z,11.13
2019-04-19T00:11:15.572Z,10.70
2019-04-19T00:13:36.773Z,12.50
2019-04-19T00:16:06.684Z,11.70
2019-04-19T00:18:36.980Z,11.23
2019-04-19T00:21:24.912Z,11.03
2019-04-19T00:23:40.572Z,11.60
2019-04-19T00:26:06.222Z,10.77
2019-04-19T00:28:43.791Z,12.03
2019-04-19T00:31:21.363Z,13.20
2019-04-19T00:33:42.599Z,11.30
2019-04-19T00:36:07.428Z,13.10
2019-04-19T00:38:47.001Z,10.40
2019-04-19T00:41:28.225Z,11.43
2019-04-19T00:44:02.633Z,11.37
2019-04-19T00:46:34.020Z,13.00
2019-04-19T00:49:05.535Z,11.53
2019-04-19T00:51:35.551Z,13.03
2019-04-19T00:53:59.844Z,12.53
2019-04-19T00:56:31.235Z,11.43
2019-04-19T00:58:56.650Z,12.53
2019-04-19T01:01:23.179Z,12.73
2019-04-19T01:03:52.175Z,12.23
2019-04-19T01:06:21.922Z,12.53
2019-04-19T01:08:59.278Z,12.70
2019-04-19T01:11:32.919Z,10.20
2019-04-19T01:14:06.157Z,12.20
2019-04-19T01:16:31.245Z,12.80
2019-04-19T01:18:58.936Z,11.73
2019-04-19T01:21:21.900Z,12.47
2019-04-19T01:23:53.999Z,13.00
2019-04-19T01:26:21.523Z,12.17
2019-04-19T01:28:56.051Z,13.17
2019-04-19T01:31:25.534Z,13.40
2019-04-19T01:33:50.786Z,13.50
2019-04-19T01:36:28.879Z,14.13
2019-04-19T01:38:58.019Z,14.80
2019-04-19T01:41:33.597Z,14.73
2019-04-19T01:44:06.631Z,13.53
2019-04-19T01:46:56.313Z,13.23
2019-04-19T01:49:29.902Z,15.03
2019-04-19T01:52:13.447Z,14.40
2019-04-19T01:54:38.398Z,15.70
2019-04-19T01:56:58.217Z,15.70
2019-04-19T01:59:24.830Z,15.57
2019-04-19T02:02:00.462Z,15.00
2019-04-19T02:04:26.907Z,14.70
2019-04-19T02:06:54.789Z,14.97
2019-04-19T02:09:32.706Z,13.60
2019-04-19T02:12:13.297Z,14.27
2019-04-19T02:14:37.592Z,13.40
2019-04-19T02:17:02.550Z,14.10
2019-04-19T02:19:29.729Z,13.90
2019-04-19T02:22:02.100Z,14.43
2019-04-19T02:24:35.183Z,13.70
2019-04-19T02:27:03.397Z,15.10
2019-04-19T02:29:31.674Z,14.40
2019-04-19T02:47:38.384Z,14.97
2019-04-19T02:49:58.057Z,13.30
2019-04-19T02:52:33.271Z,14.40
2019-04-19T03:02:53.288Z,12.93
2019-04-19T03:05:23.014Z,14.10
2019-04-19T03:07:26.607Z,12.07
2019-04-19T03:09:55.677Z,14.07
2019-04-19T03:12:47.196Z,14.53
2019-04-19T03:15:09.806Z,14.83
2019-04-19T03:17:44.529Z,14.00
2019-04-19T03:20:15.245Z,14.83
2019-04-19T03:22:39.452Z,14.10
2019-04-19T03:25:15.208Z,15.97
2019-04-19T03:27:40.723Z,15.40
2019-04-19T03:30:14.352Z,16.07
2019-04-19T03:35:21.945Z,13.80
2019-04-19T03:37:50.002Z,15.50
2019-04-19T03:42:49.326Z,13.80
2019-04-19T03:45:19.082Z,14.40
2019-04-19T03:47:54.806Z,14.40
2019-04-19T03:50:20.014Z,14.53
2019-04-19T03:52:49.084Z,15.47
2019-04-19T03:55:20.302Z,13.60
2019-04-19T03:57:42.456Z,14.20
2019-04-19T04:00:02.871Z,14.30
2019-04-19T04:02:36.901Z,14.50
2019-04-19T04:05:05.992Z,13.63
2019-04-19T04:07:33.642Z,15.40
2019-04-19T04:10:04.965Z,14.73
2019-04-19T04:12:47.389Z,14.07
2019-04-19T04:15:19.703Z,13.87
2019-04-19T04:17:39.545Z,15.23
2019-04-19T04:20:09.395Z,14.73
2019-04-19T04:22:41.749Z,14.80
2019-04-19T04:25:16.382Z,14.70
2019-04-19T04:27:51.396Z,13.27
2019-04-19T04:30:17.512Z,13.67
2019-04-19T04:32:52.826Z,12.07
2019-04-19T04:35:24.302Z,14.43
2019-04-19T04:37:51.450Z,14.10
2019-04-19T04:40:10.949Z,14.33
2019-04-19T04:42:47.566Z,12.53
2019-04-19T04:45:27.930Z,15.57
2019-04-19T04:48:10.035Z,13.40
2019-04-19T04:51:01.771Z,12.77
2019-04-19T04:53:24.324Z,13.97
2019-04-19T04:55:58.154Z,15.00
2019-04-19T04:58:30.378Z,13.10
2019-04-19T05:01:01.472Z,12.77
2019-04-19T05:03:45.569Z,12.37
2019-04-19T05:06:20.012Z,12.40
2019-04-19T05:08:47.433Z,11.97
2019-04-19T05:11:16.569Z,12.43
2019-04-19T05:13:47.036Z,13.00
2019-04-19T05:16:25.195Z,12.00
2019-04-19T05:18:48.386Z,13.57
2019-04-19T05:21:19.150Z,12.27
2019-04-19T05:23:47.718Z,13.33
2019-04-19T05:26:29.207Z,11.97
2019-04-19T05:28:43.964Z,12.30
2019-04-19T05:31:03.326Z,12.10
2019-04-19T05:33:45.290Z,12.30
2019-04-19T05:36:18.202Z,12.20
2019-04-19T05:39:08.060Z,12.63
2019-04-19T05:41:29.963Z,11.80
2019-04-19T05:44:30.394Z,11.60
2019-04-19T05:46:54.560Z,11.80
2019-04-19T05:49:21.923Z,14.07
2019-04-19T05:52:06.191Z,12.83
2019-04-19T05:54:11.556Z,12.50
2019-04-19T05:56:46.006Z,13.60
2019-04-19T05:59:14.704Z,12.57
2019-04-19T06:01:57.881Z,11.50
2019-04-19T06:04:29.022Z,12.20
2019-04-19T06:06:56.603Z,13.20
2019-04-19T06:09:09.435Z,12.07
2019-04-19T06:11:41.278Z,12.80
2019-04-19T06:14:32.234Z,13.40
2019-04-19T06:16:55.126Z,13.30
2019-04-19T06:19:28.985Z,14.43
2019-04-19T06:21:53.143Z,13.53
2019-04-19T06:24:33.956Z,12.50
2019-04-19T06:27:13.311Z,13.17
2019-04-19T06:29:38.493Z,13.27
2019-04-19T06:32:07.431Z,11.13
2019-04-19T06:34:31.426Z,12.70
2019-04-19T06:36:55.008Z,13.30
2019-04-19T06:39:14.171Z,14.13
2019-04-19T06:41:50.314Z,13.23
2019-04-19T06:44:33.564Z,12.00
2019-04-19T06:46:58.484Z,12.90
2019-04-19T06:49:21.192Z,14.90
2019-04-19T06:51:52.607Z,12.93
2019-04-19T06:54:15.503Z,12.87
2019-04-19T06:56:53.717Z,11.77
2019-04-19T06:59:24.919Z,10.37
2019-04-19T07:01:49.708Z,9.77
2019-04-19T07:04:14.925Z,10.30
2019-04-19T07:07:07.934Z,9.97
2019-04-19T07:09:48.617Z,8.93
2019-04-19T07:12:06.724Z,10.20
2019-04-19T07:14:21.380Z,10.17
2019-04-19T07:17:07.305Z,10.27
2019-04-19T07:19:35.085Z,9.97
2019-04-19T07:22:05.161Z,10.47
2019-04-19T07:24:40.447Z,9.83
2019-04-19T07:27:05.938Z,9.70
2019-04-19T07:29:18.801Z,10.13
2019-04-19T07:31:47.431Z,9.60
2019-04-19T07:34:35.048Z,10.10
2019-04-19T07:37:04.947Z,10.10
2019-04-19T07:39:43.265Z,10.40
2019-04-19T07:42:15.728Z,9.57
2019-04-19T07:44:28.587Z,10.70
2019-04-19T07:47:16.308Z,10.23
2019-04-19T07:49:41.567Z,10.87
2019-04-19T07:52:14.023Z,9.70
2019-04-19T07:54:35.590Z,10.63
2019-04-19T07:57:37.313Z,9.57
2019-04-19T08:00:00.633Z,11.83
2019-04-19T08:02:36.024Z,10.37
2019-04-19T08:07:41.407Z,11.27
2019-04-19T08:12:31.674Z,10.23
2019-04-19T08:29:48.559Z,10.10
2019-04-19T08:32:09.378Z,9.77
2019-04-19T08:34:39.480Z,10.33
2019-04-19T08:37:18.383Z,9.80
2019-04-19T08:39:56.770Z,10.13
2019-04-19T08:42:32.023Z,9.57
2019-04-19T08:44:49.317Z,10.23
2019-04-19T08:47:35.588Z,10.37
2019-04-19T08:50:05.743Z,11.00
2019-04-19T08:52:35.488Z,9.83
2019-04-19T08:55:26.315Z,10.63
2019-04-19T08:57:34.752Z,11.30
2019-04-19T09:00:37.182Z,10.10
2019-04-19T09:02:50.356Z,9.97
2019-04-19T09:05:22.261Z,10.63
2019-04-19T09:07:59.721Z,9.90
2019-04-19T09:10:41.516Z,11.00
2019-04-19T09:13:06.792Z,10.43
2019-04-19T09:15:24.080Z,10.10
2019-04-19T09:20:34.081Z,9.93
2019-04-19T09:23:05.029Z,11.07
2019-04-19T09:25:42.042Z,10.40
2019-04-19T09:28:31.275Z,10.73
2019-04-19T09:30:49.150Z,11.10
2019-04-19T09:33:09.795Z,11.27
2019-04-19T09:35:38.607Z,11.00
2019-04-19T09:38:14.963Z,10.87
2019-04-19T09:40:44.532Z,10.20
2019-04-19T09:43:19.759Z,10.13
2019-04-19T09:45:36.265Z,9.50
2019-04-19T09:48:05.445Z,9.13
2019-04-19T09:50:52.358Z,9.47
2019-04-19T09:53:31.671Z,9.57
2019-04-19T09:55:55.500Z,9.53
2019-04-19T09:58:26.407Z,9.23
2019-04-19T10:00:36.776Z,9.97
2019-04-19T10:03:20.453Z,9.50
2019-04-19T10:05:36.849Z,9.10
2019-04-19T10:08:05.998Z,9.30
2019-04-19T10:10:34.766Z,9.40
2019-04-19T10:13:03.584Z,8.83
2019-04-19T10:15:36.434Z,7.47
2019-04-19T10:18:05.063Z,8.20
2019-04-19T10:20:54.639Z,9.73
2019-04-19T10:23:23.414Z,10.00
2019-04-19T10:25:57.866Z,9.57
2019-04-19T10:28:25.287Z,8.07
2019-04-19T10:30:58.960Z,8.00
2019-04-19T10:33:36.900Z,9.10
2019-04-19T10:35:57.780Z,9.43
2019-04-19T10:38:27.469Z,8.93
2019-04-19T10:40:56.130Z,7.87
2019-04-19T10:43:25.284Z,8.67
2019-04-19T10:45:54.205Z,8.07
2019-04-19T10:48:23.070Z,8.77
2019-04-19T10:50:55.051Z,8.87
2019-04-19T10:53:24.126Z,9.10
2019-04-19T10:55:54.402Z,7.97
2019-04-19T10:58:23.243Z,8.57
2019-04-19T11:00:51.972Z,8.73
2019-04-19T11:03:21.053Z,8.47
2019-04-19T11:05:50.400Z,9.50
2019-04-19T11:08:20.366Z,8.90
2019-04-19T11:10:49.613Z,8.23
2019-04-19T11:13:24.503Z,7.50
2019-04-19T11:15:48.682Z,9.10
2019-04-19T11:18:17.434Z,8.07
2019-04-19T11:20:49.628Z,8.40
2019-04-19T11:23:17.572Z,7.57
2019-04-19T11:25:47.694Z,7.87
2019-04-19T11:28:18.835Z,8.37
2019-04-19T11:30:49.153Z,7.70
2019-04-19T11:33:25.606Z,7.50
2019-04-19T11:35:55.476Z,7.00
2019-04-19T11:38:25.039Z,7.60
2019-04-19T11:40:55.266Z,7.17
2019-04-19T11:43:25.151Z,7.23
2019-04-19T11:45:53.957Z,6.77
2019-04-19T11:48:22.785Z,7.47
2019-04-19T11:50:51.878Z,6.27
2019-04-19T11:53:25.027Z,6.40
2019-04-19T11:55:56.212Z,7.40
2019-04-19T11:58:24.805Z,4.57
2019-04-19T12:00:58.489Z,5.73
2019-04-19T12:03:27.944Z,6.77
2019-04-19T12:05:56.669Z,5.70
2019-04-19T12:08:26.616Z,5.97
2019-04-19T12:10:56.587Z,4.83
2019-04-19T12:13:27.441Z,5.07
2019-04-19T12:15:56.843Z,5.13
2019-04-19T12:18:26.343Z,5.70
2019-04-19T12:20:55.454Z,5.00
2019-04-19T12:23:25.446Z,4.47
2019-04-19T12:25:55.506Z,3.60
2019-04-19T12:28:24.270Z,2.93
2019-04-19T12:30:57.055Z,3.87
2019-04-19T12:33:24.425Z,3.27
2019-04-19T12:35:53.080Z,3.23
2019-04-19T12:38:21.955Z,2.90
2019-04-19T12:40:52.415Z,3.33
2019-04-19T12:43:22.185Z,4.10
2019-04-19T12:45:52.519Z,4.60
2019-04-19T12:48:21.754Z,3.80
2019-04-19T12:50:51.478Z,4.17
2019-04-19T12:53:21.030Z,3.10
2019-04-19T12:55:50.188Z,3.10
2019-04-19T12:58:19.969Z,3.87
2019-04-19T13:00:56.291Z,3.47
2019-04-19T13:03:44.441Z,3.37
2019-04-19T13:06:27.376Z,3.57
2019-04-19T13:08:57.167Z,3.27
2019-04-19T13:11:27.245Z,3.70
2019-04-19T13:13:55.983Z,3.20
2019-04-19T13:16:24.645Z,4.10
2019-04-19T13:18:54.222Z,3.23
2019-04-19T13:21:24.143Z,4.30
2019-04-19T13:23:52.869Z,3.30
2019-04-19T13:26:21.459Z,2.60
2019-04-19T13:28:51.257Z,2.70
2019-04-19T13:31:21.069Z,3.57
2019-04-19T13:33:49.591Z,3.23
2019-04-19T13:36:22.188Z,2.90
2019-04-19T13:38:59.307Z,3.40
2019-04-19T13:41:48.792Z,3.50
2019-04-19T13:44:18.691Z,2.50
2019-04-19T13:46:48.585Z,2.73
2019-04-19T13:49:17.347Z,2.67
2019-04-19T13:51:46.135Z,2.70
2019-04-19T13:54:14.763Z,3.33
2019-04-19T13:56:47.276Z,2.77
2019-04-19T13:59:16.043Z,2.60
2019-04-19T14:01:44.566Z,2.80
2019-04-19T14:04:13.556Z,2.33
2019-04-19T14:06:42.380Z,2.37
2019-04-19T14:09:13.432Z,2.43
2019-04-19T14:11:42.847Z,2.33
2019-04-19T14:14:12.085Z,2.93
2019-04-19T14:16:41.896Z,2.50
2019-04-19T14:19:11.759Z,3.47
2019-04-19T14:21:40.824Z,2.07
2019-04-19T14:24:09.446Z,2.60
2019-04-19T14:26:45.072Z,3.00
2019-04-19T14:29:09.502Z,2.60
2019-04-19T14:31:39.938Z,2.43
2019-04-19T14:34:09.018Z,3.07
2019-04-19T14:36:38.073Z,2.87
2019-04-19T14:39:08.905Z,2.60
2019-04-19T14:41:38.021Z,2.83
2019-04-19T14:44:07.226Z,2.87
2019-04-19T14:46:36.697Z,2.30
2019-04-19T14:49:05.367Z,2.40
2019-04-19T14:51:37.036Z,2.67
2019-04-19T14:54:04.736Z,3.40
2019-04-19T14:56:34.057Z,2.60
2019-04-19T14:59:02.683Z,2.53
2019-04-19T15:01:49.350Z,2.80
2019-04-19T15:04:26.659Z,2.87
2019-04-19T15:06:55.653Z,2.57
2019-04-19T15:09:24.174Z,2.40
2019-04-19T15:11:52.750Z,3.17
2019-04-19T15:14:22.128Z,2.23
2019-04-19T15:16:51.988Z,2.40
2019-04-19T15:19:20.904Z,2.63
2019-04-19T15:21:50.082Z,2.27
2019-04-19T15:24:18.811Z,2.20
2019-04-19T15:26:47.461Z,1.90
2019-04-19T15:29:16.763Z,2.37
2019-04-19T15:31:46.216Z,2.30
2019-04-19T15:34:15.632Z,2.30
2019-04-19T15:36:44.246Z,2.47
2019-04-19T15:39:13.677Z,1.60
2019-04-19T15:41:42.275Z,2.70
2019-04-19T15:44:10.830Z,2.37
2019-04-19T15:46:39.732Z,2.10
2019-04-19T15:49:08.316Z,2.70
2019-04-19T15:51:39.709Z,2.93
2019-04-19T15:54:08.111Z,3.03
2019-04-19T15:56:36.708Z,3.63
2019-04-19T15:59:05.393Z,2.70
2019-04-19T16:01:53.873Z,2.60
2019-04-19T16:04:40.154Z,1.93
2019-04-19T16:07:10.379Z,2.50
2019-04-19T16:10:02.995Z,2.83
2019-04-19T16:12:27.254Z,2.53
2019-04-19T16:14:55.774Z,2.67
2019-04-19T16:17:25.145Z,2.70
2019-04-19T16:19:53.773Z,2.70
2019-04-19T16:22:22.503Z,2.70
2019-04-19T16:24:51.499Z,3.00
2019-04-19T16:27:20.850Z,2.93
2019-04-19T16:29:54.581Z,2.97
2019-04-19T16:32:21.082Z,3.43
2019-04-19T16:34:49.755Z,2.70
2019-04-19T16:37:18.670Z,3.30
2019-04-19T16:39:48.257Z,2.73
2019-04-19T16:42:16.852Z,2.73
2019-04-19T16:44:45.748Z,3.10
2019-04-19T16:47:15.261Z,2.93
2019-04-19T16:49:44.795Z,3.77
2019-04-19T16:52:13.445Z,3.70
2019-04-19T16:54:41.892Z,2.70
2019-04-19T16:57:16.833Z,2.80
2019-04-19T16:59:41.726Z,2.80
2019-04-19T17:02:11.053Z,2.43
2019-04-19T17:04:40.880Z,2.80
2019-04-19T17:07:09.520Z,3.00
2019-04-19T17:09:38.403Z,3.07
2019-04-19T17:12:07.549Z,2.83
2019-04-19T17:14:36.856Z,2.57
2019-04-19T17:17:07.217Z,3.37
2019-04-19T17:19:55.060Z,2.63
2019-04-19T17:22:26.713Z,3.10
2019-04-19T17:24:55.283Z,3.90
2019-04-19T17:27:27.688Z,3.17
2019-04-19T17:29:54.473Z,3.40
2019-04-19T17:32:23.991Z,3.60
2019-04-19T17:34:54.184Z,3.67
2019-04-19T17:37:24.201Z,3.67
2019-04-19T17:39:52.985Z,4.80
2019-04-19T17:42:22.328Z,4.20
2019-04-19T17:44:51.580Z,3.63
2019-04-19T17:47:24.397Z,4.70
2019-04-19T17:49:51.264Z,4.40
2019-04-19T17:52:26.340Z,5.70
2019-04-19T17:55:05.081Z,4.67
2019-04-19T17:57:21.002Z,11.27
2019-04-19T17:59:50.309Z,17.67
2019-04-19T18:02:19.106Z,29.33
2019-04-19T18:04:48.207Z,24.10
2019-04-19T18:07:16.728Z,17.83
2019-04-19T18:09:48.505Z,8.63
2019-04-19T18:12:15.512Z,10.80
2019-04-19T18:14:43.989Z,9.10
2019-04-19T18:17:12.606Z,10.17
2019-04-19T18:19:43.560Z,12.13
2019-04-19T18:22:20.103Z,12.80
2019-04-19T18:24:50.012Z,14.60
2019-04-19T18:27:18.076Z,12.20
2019-04-19T18:29:42.238Z,14.10
2019-04-19T18:32:25.873Z,13.63
2019-04-19T18:34:55.896Z,9.90
2019-04-19T18:37:29.602Z,11.53
2019-04-19T18:39:54.645Z,10.10
2019-04-19T18:42:23.945Z,10.20
2019-04-19T18:44:56.463Z,15.97
2019-04-19T18:47:22.916Z,15.60
2019-04-19T18:49:51.880Z,18.30
2019-04-19T18:52:33.510Z,17.50
2019-04-19T18:54:59.587Z,14.33
2019-04-19T18:57:22.240Z,14.30
2019-04-19T18:59:55.986Z,12.93
2019-04-19T19:02:24.989Z,9.23
2019-04-19T19:04:54.062Z,8.47
2019-04-19T19:07:25.128Z,6.63
2019-04-19T19:09:54.809Z,8.33
2019-04-19T19:12:22.457Z,9.23
2019-04-19T19:14:57.129Z,9.77
2019-04-19T19:17:22.337Z,11.80
2019-04-19T19:19:54.708Z,11.03
2019-04-19T19:22:31.343Z,8.27
2019-04-19T19:25:10.252Z,6.53
2019-04-19T19:27:26.882Z,16.37
2019-04-19T19:29:52.773Z,9.60
2019-04-19T19:32:22.488Z,8.30
2019-04-19T19:34:54.630Z,7.13
2019-04-19T19:37:26.757Z,7.23
2019-04-19T19:40:04.204Z,6.03
2019-04-19T19:42:56.223Z,5.70
2019-04-19T19:45:14.014Z,6.27
2019-04-19T19:48:17.546Z,7.27
2019-04-19T19:50:35.936Z,9.73
2019-04-19T19:53:07.538Z,7.63
2019-04-19T19:55:31.256Z,10.77
2019-04-19T19:57:56.070Z,8.87
2019-04-19T20:00:30.842Z,10.30
2019-04-19T20:03:01.543Z,13.27
2019-04-19T20:05:26.446Z,9.80
2019-04-19T20:07:51.755Z,9.03
2019-04-19T20:10:21.161Z,8.17
2019-04-19T20:12:55.710Z,8.13
2019-04-19T20:15:21.591Z,9.50
2019-04-19T20:17:56.334Z,9.23
2019-04-19T20:20:28.267Z,6.40
2019-04-19T20:22:52.458Z,7.00
2019-04-19T20:25:32.549Z,5.90
2019-04-19T20:27:54.975Z,9.20
2019-04-19T20:30:21.795Z,19.40
2019-04-19T20:32:54.511Z,25.90
2019-04-19T20:35:24.387Z,25.30
2019-04-19T20:37:55.513Z,37.43
2019-04-19T20:40:25.800Z,42.53
2019-04-19T20:43:16.254Z,27.60
2019-04-19T20:45:33.874Z,29.63
2019-04-19T20:47:56.400Z,19.67
2019-04-19T20:50:37.380Z,22.40
2019-04-19T20:53:14.667Z,17.37
2019-04-19T20:55:55.408Z,14.10
2019-04-19T20:58:27.746Z,15.00
2019-04-19T21:00:50.491Z,13.47
2019-04-19T21:03:24.963Z,12.27
2019-04-19T21:05:50.901Z,12.10
2019-04-19T21:08:22.799Z,8.40
2019-04-19T21:10:56.883Z,8.10
2019-04-19T21:13:21.315Z,9.47
2019-04-19T21:15:50.086Z,5.97
2019-04-19T21:18:23.513Z,7.40
2019-04-19T21:20:50.462Z,9.57
2019-04-19T21:23:25.512Z,9.33
2019-04-19T21:25:57.061Z,11.30
2019-04-19T21:28:24.159Z,11.60
2019-04-19T21:30:55.805Z,15.70
2019-04-19T21:33:22.531Z,16.30
2019-04-19T21:35:57.239Z,13.77
2019-04-19T21:38:24.776Z,13.33
2019-04-19T21:40:53.110Z,13.50
2019-04-19T21:43:29.592Z,14.60
2019-04-19T21:45:54.836Z,15.30
2019-04-19T21:48:26.855Z,15.83
2019-04-19T21:50:54.139Z,16.43
2019-04-19T21:53:22.858Z,15.67
2019-04-19T21:55:59.765Z,13.83
2019-04-19T21:58:24.620Z,15.80
2019-04-19T22:01:04.685Z,13.23
2019-04-19T22:03:30.723Z,8.80
2019-04-19T22:06:01.909Z,45.50
2019-04-19T22:08:34.269Z,18.13
2019-04-19T22:11:00.532Z,19.53
2019-04-19T22:13:32.019Z,19.03
2019-04-19T22:16:01.940Z,15.50
2019-04-19T22:18:34.431Z,7.83
2019-04-19T22:21:03.196Z,7.20
2019-04-19T22:23:30.877Z,6.17
2019-04-19T22:26:13.050Z,8.63
2019-04-19T22:28:29.982Z,9.87
2019-04-19T22:31:01.122Z,14.03
2019-04-19T22:33:30.247Z,11.27
2019-04-19T22:36:01.552Z,9.93
2019-04-19T22:38:29.650Z,8.00
2019-04-19T22:41:05.517Z,8.33
2019-04-19T22:43:28.888Z,7.90
2019-04-19T22:46:03.222Z,7.30
2019-04-19T22:48:29.321Z,8.30
2019-04-19T22:51:03.776Z,7.57
2019-04-19T22:53:33.723Z,7.57
2019-04-19T22:56:08.082Z,8.73
2019-04-19T22:58:31.693Z,8.47
2019-04-19T23:00:59.143Z,7.80
2019-04-19T23:03:33.639Z,9.40
2019-04-19T23:05:59.586Z,9.40
2019-04-19T23:08:33.058Z,9.40
2019-04-19T23:11:02.718Z,10.00
2019-04-19T23:13:29.488Z,9.80
2019-04-19T23:16:04.004Z,8.90
2019-04-19T23:18:29.392Z,8.50
2019-04-19T23:21:05.446Z,8.47
2019-04-19T23:23:31.708Z,8.70
2019-04-19T23:26:13.110Z,8.90
2019-04-19T23:28:34.029Z,8.90
2019-04-19T23:31:05.424Z,9.10
2019-04-19T23:33:30.264Z,9.53
2019-04-19T23:35:59.639Z,10.20
2019-04-19T23:38:30.793Z,9.17
2019-04-19T23:40:59.306Z,10.30
2019-04-19T23:43:34.203Z,8.50
2019-04-19T23:45:58.343Z,9.57
2019-04-19T23:48:31.501Z,9.50
2019-04-19T23:50:58.084Z,8.93
2019-04-19T23:53:30.768Z,8.47
2019-04-19T23:55:56.810Z,7.87
2019-04-19T23:58:29.425Z,7.33
